sensor_id;sensor_type;location;lat;lon;timestamp;P1;durP1;ratioP1;P2;durP2;ratioP2
5999;SDS011;3028;49.468;7.694;2023-05-29T00:00:35;4.05;;;3.65;;
5999;SDS011;3028;49.468;7.694;2023-05-29T00:02:37;4.82;;;3.90;;
5999;SDS011;3028;49.468;7.694;2023-05-29T00:04:38;4.68;;;4.18;;
5999;SDS011;3028;49.468;7.694;2023-05-29T00:06:40;4.82;;;4.32;;
5999;SDS011;3028;49.468;7.694;2023-05-29T00:08:42;5.40;;;4.20;;
5999;SDS011;3028;49.468;7.694;2023-05-29T00:10:44;8.20;;;3.83;;
5999;SDS011;3028;49.468;7.694;2023-05-29T00:12:46;5.03;;;4.00;;
5999;SDS011;3028;49.468;7.694;2023-05-29T00:14:50;4.32;;;3.95;;
5999;SDS011;3028;49.468;7.694;2023-05-29T00:16:52;10.75;;;4.18;;
5999;SDS011;3028;49.468;7.694;2023-05-29T00:18:54;5.07;;;3.75;;
5999;SDS011;3028;49.468;7.694;2023-05-29T00:20:56;3.63;;;3.33;;
5999;SDS011;3028;49.468;7.694;2023-05-29T00:22:57;4.93;;;4.13;;
5999;SDS011;3028;49.468;7.694;2023-05-29T00:24:59;3.95;;;3.55;;
5999;SDS011;3028;49.468;7.694;2023-05-29T00:27:01;5.32;;;4.03;;
5999;SDS011;3028;49.468;7.694;2023-05-29T00:29:03;4.93;;;4.15;;
5999;SDS011;3028;49.468;7.694;2023-05-29T00:31:04;4.32;;;3.70;;
5999;SDS011;3028;49.468;7.694;2023-05-29T00:33:06;4.82;;;4.03;;
5999;SDS011;3028;49.468;7.694;2023-05-29T00:35:09;4.28;;;3.85;;
5999;SDS011;3028;49.468;7.694;2023-05-29T00:37:11;4.70;;;3.83;;
5999;SDS011;3028;49.468;7.694;2023-05-29T00:39:13;3.92;;;3.22;;
5999;SDS011;3028;49.468;7.694;2023-05-29T00:41:15;4.43;;;4.03;;
5999;SDS011;3028;49.468;7.694;2023-05-29T00:43:17;4.30;;;3.90;;
5999;SDS011;3028;49.468;7.694;2023-05-29T00:45:19;5.20;;;4.32;;
5999;SDS011;3028;49.468;7.694;2023-05-29T00:47:21;4.53;;;4.05;;
5999;SDS011;3028;49.468;7.694;2023-05-29T00:49:23;4.07;;;3.67;;
5999;SDS011;3028;49.468;7.694;2023-05-29T00:51:25;4.13;;;3.72;;
5999;SDS011;3028;49.468;7.694;2023-05-29T00:53:27;4.03;;;2.75;;
5999;SDS011;3028;49.468;7.694;2023-05-29T00:55:29;7.00;;;3.47;;
5999;SDS011;3028;49.468;7.694;2023-05-29T00:57:32;3.95;;;3.63;;
5999;SDS011;3028;49.468;7.694;2023-05-29T00:59:35;3.88;;;3.38;;
5999;SDS011;3028;49.468;7.694;2023-05-29T01:01:37;5.13;;;4.18;;
5999;SDS011;3028;49.468;7.694;2023-05-29T01:03:40;4.18;;;3.47;;
5999;SDS011;3028;49.468;7.694;2023-05-29T01:05:42;4.32;;;3.92;;
5999;SDS011;3028;49.468;7.694;2023-05-29T01:07:44;9.73;;;4.70;;
5999;SDS011;3028;49.468;7.694;2023-05-29T01:09:46;5.00;;;4.03;;
5999;SDS011;3028;49.468;7.694;2023-05-29T01:12:03;6.30;;;3.67;;
5999;SDS011;3028;49.468;7.694;2023-05-29T01:14:17;4.68;;;3.45;;
5999;SDS011;3028;49.468;7.694;2023-05-29T01:16:29;4.95;;;4.32;;
5999;SDS011;3028;49.468;7.694;2023-05-29T01:18:39;4.28;;;3.58;;
5999;SDS011;3028;49.468;7.694;2023-05-29T01:28:02;4.03;;;3.15;;
5999;SDS011;3028;49.468;7.694;2023-05-29T01:30:06;6.40;;;4.03;;
5999;SDS011;3028;49.468;7.694;2023-05-29T01:32:09;4.50;;;3.95;;
5999;SDS011;3028;49.468;7.694;2023-05-29T01:34:12;4.43;;;4.03;;
5999;SDS011;3028;49.468;7.694;2023-05-29T01:36:14;4.13;;;3.35;;
5999;SDS011;3028;49.468;7.694;2023-05-29T01:38:15;4.78;;;3.88;;
5999;SDS011;3028;49.468;7.694;2023-05-29T01:40:17;4.03;;;3.55;;
5999;SDS011;3028;49.468;7.694;2023-05-29T01:42:19;4.30;;;3.90;;
5999;SDS011;3028;49.468;7.694;2023-05-29T01:44:20;5.38;;;4.28;;
5999;SDS011;3028;49.468;7.694;2023-05-29T01:46:23;3.80;;;3.47;;
5999;SDS011;3028;49.468;7.694;2023-05-29T01:48:27;3.85;;;3.45;;
5999;SDS011;3028;49.468;7.694;2023-05-29T01:50:29;4.72;;;4.32;;
5999;SDS011;3028;49.468;7.694;2023-05-29T01:52:31;5.40;;;4.00;;
5999;SDS011;3028;49.468;7.694;2023-05-29T01:54:33;4.05;;;3.70;;
5999;SDS011;3028;49.468;7.694;2023-05-29T01:56:35;4.45;;;3.50;;
5999;SDS011;3028;49.468;7.694;2023-05-29T01:58:38;3.95;;;3.42;;
5999;SDS011;3028;49.468;7.694;2023-05-29T02:00:40;4.60;;;3.80;;
5999;SDS011;3028;49.468;7.694;2023-05-29T02:02:43;4.70;;;3.63;;
5999;SDS011;3028;49.468;7.694;2023-05-29T02:04:45;4.90;;;3.75;;
5999;SDS011;3028;49.468;7.694;2023-05-29T02:06:46;3.67;;;3.30;;
5999;SDS011;3028;49.468;7.694;2023-05-29T02:08:48;3.72;;;3.42;;
5999;SDS011;3028;49.468;7.694;2023-05-29T02:10:50;3.22;;;2.92;;
5999;SDS011;3028;49.468;7.694;2023-05-29T02:12:52;5.60;;;5.07;;
5999;SDS011;3028;49.468;7.694;2023-05-29T02:14:53;5.70;;;3.33;;
5999;SDS011;3028;49.468;7.694;2023-05-29T02:16:55;4.93;;;3.55;;
5999;SDS011;3028;49.468;7.694;2023-05-29T02:18:59;4.32;;;3.97;;
5999;SDS011;3028;49.468;7.694;2023-05-29T02:21:02;4.82;;;4.43;;
5999;SDS011;3028;49.468;7.694;2023-05-29T02:23:04;5.72;;;4.10;;
5999;SDS011;3028;49.468;7.694;2023-05-29T02:25:06;3.40;;;3.10;;
5999;SDS011;3028;49.468;7.694;2023-05-29T02:27:08;4.55;;;4.05;;
5999;SDS011;3028;49.468;7.694;2023-05-29T02:29:10;5.05;;;3.97;;
5999;SDS011;3028;49.468;7.694;2023-05-29T02:31:12;5.75;;;3.95;;
5999;SDS011;3028;49.468;7.694;2023-05-29T02:33:14;5.25;;;4.05;;
5999;SDS011;3028;49.468;7.694;2023-05-29T02:35:16;3.90;;;3.25;;
5999;SDS011;3028;49.468;7.694;2023-05-29T02:37:19;4.43;;;4.03;;
5999;SDS011;3028;49.468;7.694;2023-05-29T02:39:20;3.55;;;3.33;;
5999;SDS011;3028;49.468;7.694;2023-05-29T02:41:22;3.47;;;3.17;;
5999;SDS011;3028;49.468;7.694;2023-05-29T02:43:24;4.55;;;3.38;;
5999;SDS011;3028;49.468;7.694;2023-05-29T02:45:26;3.80;;;3.50;;
5999;SDS011;3028;49.468;7.694;2023-05-29T02:47:27;3.80;;;3.35;;
5999;SDS011;3028;49.468;7.694;2023-05-29T02:49:32;5.03;;;3.75;;
5999;SDS011;3028;49.468;7.694;2023-05-29T02:51:34;3.95;;;3.58;;
5999;SDS011;3028;49.468;7.694;2023-05-29T02:53:36;4.10;;;3.72;;
5999;SDS011;3028;49.468;7.694;2023-05-29T02:55:37;5.35;;;3.95;;
5999;SDS011;3028;49.468;7.694;2023-05-29T02:57:39;3.50;;;3.20;;
5999;SDS011;3028;49.468;7.694;2023-05-29T02:59:41;4.85;;;3.10;;
5999;SDS011;3028;49.468;7.694;2023-05-29T03:01:45;3.67;;;3.38;;
5999;SDS011;3028;49.468;7.694;2023-05-29T03:03:48;7.35;;;4.22;;
5999;SDS011;3028;49.468;7.694;2023-05-29T03:05:51;4.03;;;3.63;;
5999;SDS011;3028;49.468;7.694;2023-05-29T03:07:52;4.30;;;3.40;;
5999;SDS011;3028;49.468;7.694;2023-05-29T03:09:54;4.05;;;3.75;;
5999;SDS011;3028;49.468;7.694;2023-05-29T03:12:00;3.95;;;3.58;;
5999;SDS011;3028;49.468;7.694;2023-05-29T03:14:02;3.30;;;3.00;;
5999;SDS011;3028;49.468;7.694;2023-05-29T03:16:04;4.43;;;3.22;;
5999;SDS011;3028;49.468;7.694;2023-05-29T03:18:06;3.40;;;3.10;;
5999;SDS011;3028;49.468;7.694;2023-05-29T03:20:08;4.00;;;3.60;;
5999;SDS011;3028;49.468;7.694;2023-05-29T03:22:10;5.85;;;4.75;;
5999;SDS011;3028;49.468;7.694;2023-05-29T03:24:12;7.28;;;3.83;;
5999;SDS011;3028;49.468;7.694;2023-05-29T03:26:14;3.88;;;3.42;;
5999;SDS011;3028;49.468;7.694;2023-05-29T03:28:17;3.63;;;2.55;;
5999;SDS011;3028;49.468;7.694;2023-05-29T03:30:18;5.53;;;4.05;;
5999;SDS011;3028;49.468;7.694;2023-05-29T03:32:21;11.07;;;4.10;;
5999;SDS011;3028;49.468;7.694;2023-05-29T03:34:23;5.20;;;3.78;;
5999;SDS011;3028;49.468;7.694;2023-05-29T03:36:25;3.80;;;3.40;;
5999;SDS011;3028;49.468;7.694;2023-05-29T03:38:28;12.50;;;3.53;;
5999;SDS011;3028;49.468;7.694;2023-05-29T03:40:32;3.63;;;2.72;;
5999;SDS011;3028;49.468;7.694;2023-05-29T03:42:34;7.03;;;3.50;;
5999;SDS011;3028;49.468;7.694;2023-05-29T03:44:36;4.28;;;3.53;;
5999;SDS011;3028;49.468;7.694;2023-05-29T03:46:38;3.83;;;3.50;;
5999;SDS011;3028;49.468;7.694;2023-05-29T03:48:40;3.95;;;3.55;;
5999;SDS011;3028;49.468;7.694;2023-05-29T03:50:41;4.18;;;3.78;;
5999;SDS011;3028;49.468;7.694;2023-05-29T03:52:43;4.20;;;3.83;;
5999;SDS011;3028;49.468;7.694;2023-05-29T03:54:45;4.75;;;3.65;;
5999;SDS011;3028;49.468;7.694;2023-05-29T03:56:46;10.23;;;3.70;;
5999;SDS011;3028;49.468;7.694;2023-05-29T03:58:48;3.80;;;3.50;;
5999;SDS011;3028;49.468;7.694;2023-05-29T04:00:50;4.03;;;3.72;;
5999;SDS011;3028;49.468;7.694;2023-05-29T04:02:52;5.13;;;4.30;;
5999;SDS011;3028;49.468;7.694;2023-05-29T04:04:54;5.35;;;3.35;;
5999;SDS011;3028;49.468;7.694;2023-05-29T04:06:56;4.53;;;4.07;;
5999;SDS011;3028;49.468;7.694;2023-05-29T04:08:58;4.43;;;3.28;;
5999;SDS011;3028;49.468;7.694;2023-05-29T04:11:00;5.90;;;3.97;;
5999;SDS011;3028;49.468;7.694;2023-05-29T04:13:02;3.67;;;3.30;;
5999;SDS011;3028;49.468;7.694;2023-05-29T04:15:04;3.85;;;2.85;;
5999;SDS011;3028;49.468;7.694;2023-05-29T04:17:07;3.22;;;2.78;;
5999;SDS011;3028;49.468;7.694;2023-05-29T04:19:09;3.28;;;2.95;;
5999;SDS011;3028;49.468;7.694;2023-05-29T04:21:10;4.25;;;3.60;;
5999;SDS011;3028;49.468;7.694;2023-05-29T04:23:13;3.88;;;3.13;;
5999;SDS011;3028;49.468;7.694;2023-05-29T04:25:15;4.18;;;3.78;;
5999;SDS011;3028;49.468;7.694;2023-05-29T04:27:16;4.47;;;4.07;;
5999;SDS011;3028;49.468;7.694;2023-05-29T04:29:18;3.90;;;3.17;;
5999;SDS011;3028;49.468;7.694;2023-05-29T04:31:20;4.40;;;3.30;;
5999;SDS011;3028;49.468;7.694;2023-05-29T04:33:25;4.35;;;3.70;;
5999;SDS011;3028;49.468;7.694;2023-05-29T04:35:27;3.85;;;3.42;;
5999;SDS011;3028;49.468;7.694;2023-05-29T04:37:32;4.15;;;3.72;;
5999;SDS011;3028;49.468;7.694;2023-05-29T04:39:38;4.43;;;4.03;;
5999;SDS011;3028;49.468;7.694;2023-05-29T04:41:40;4.25;;;3.85;;
5999;SDS011;3028;49.468;7.694;2023-05-29T04:43:43;5.45;;;3.45;;
5999;SDS011;3028;49.468;7.694;2023-05-29T04:45:44;3.67;;;3.35;;
5999;SDS011;3028;49.468;7.694;2023-05-29T04:47:46;3.88;;;3.58;;
5999;SDS011;3028;49.468;7.694;2023-05-29T04:49:48;3.50;;;3.15;;
5999;SDS011;3028;49.468;7.694;2023-05-29T04:51:51;3.67;;;3.30;;
5999;SDS011;3028;49.468;7.694;2023-05-29T04:53:55;7.57;;;3.47;;
5999;SDS011;3028;49.468;7.694;2023-05-29T04:55:58;3.67;;;3.38;;
5999;SDS011;3028;49.468;7.694;2023-05-29T04:57:59;6.55;;;4.07;;
5999;SDS011;3028;49.468;7.694;2023-05-29T05:00:02;4.85;;;3.50;;
5999;SDS011;3028;49.468;7.694;2023-05-29T05:02:08;4.05;;;3.63;;
5999;SDS011;3028;49.468;7.694;2023-05-29T05:04:10;4.32;;;3.75;;
5999;SDS011;3028;49.468;7.694;2023-05-29T05:06:11;3.60;;;3.05;;
5999;SDS011;3028;49.468;7.694;2023-05-29T05:08:14;4.63;;;3.72;;
5999;SDS011;3028;49.468;7.694;2023-05-29T05:10:15;4.95;;;3.03;;
5999;SDS011;3028;49.468;7.694;2023-05-29T05:12:17;3.33;;;3.03;;
5999;SDS011;3028;49.468;7.694;2023-05-29T05:14:19;4.38;;;3.50;;
5999;SDS011;3028;49.468;7.694;2023-05-29T05:16:20;4.43;;;3.75;;
5999;SDS011;3028;49.468;7.694;2023-05-29T05:18:22;4.15;;;3.75;;
5999;SDS011;3028;49.468;7.694;2023-05-29T05:20:24;3.90;;;3.50;;
5999;SDS011;3028;49.468;7.694;2023-05-29T05:22:26;4.05;;;3.60;;
5999;SDS011;3028;49.468;7.694;2023-05-29T05:24:28;6.75;;;3.70;;
5999;SDS011;3028;49.468;7.694;2023-05-29T05:26:29;6.65;;;4.07;;
5999;SDS011;3028;49.468;7.694;2023-05-29T05:28:31;5.82;;;4.78;;
5999;SDS011;3028;49.468;7.694;2023-05-29T05:30:33;6.05;;;5.05;;
5999;SDS011;3028;49.468;7.694;2023-05-29T05:32:34;5.43;;;4.82;;
5999;SDS011;3028;49.468;7.694;2023-05-29T05:34:36;6.05;;;5.53;;
5999;SDS011;3028;49.468;7.694;2023-05-29T05:36:38;5.63;;;4.97;;
5999;SDS011;3028;49.468;7.694;2023-05-29T05:38:39;4.53;;;4.07;;
5999;SDS011;3028;49.468;7.694;2023-05-29T05:40:41;3.90;;;3.53;;
5999;SDS011;3028;49.468;7.694;2023-05-29T05:42:46;3.95;;;3.55;;
5999;SDS011;3028;49.468;7.694;2023-05-29T05:44:47;5.18;;;3.95;;
5999;SDS011;3028;49.468;7.694;2023-05-29T05:46:49;3.25;;;2.95;;
5999;SDS011;3028;49.468;7.694;2023-05-29T05:48:51;3.70;;;2.92;;
5999;SDS011;3028;49.468;7.694;2023-05-29T05:50:53;3.35;;;2.97;;
5999;SDS011;3028;49.468;7.694;2023-05-29T05:52:55;3.70;;;3.40;;
5999;SDS011;3028;49.468;7.694;2023-05-29T05:54:56;5.15;;;3.92;;
5999;SDS011;3028;49.468;7.694;2023-05-29T05:56:58;5.38;;;3.72;;
5999;SDS011;3028;49.468;7.694;2023-05-29T05:59:00;3.88;;;3.00;;
5999;SDS011;3028;49.468;7.694;2023-05-29T06:01:02;3.78;;;3.40;;
5999;SDS011;3028;49.468;7.694;2023-05-29T06:03:03;4.05;;;2.67;;
5999;SDS011;3028;49.468;7.694;2023-05-29T06:05:05;7.32;;;3.42;;
5999;SDS011;3028;49.468;7.694;2023-05-29T06:07:08;3.33;;;2.63;;
5999;SDS011;3028;49.468;7.694;2023-05-29T06:09:10;3.28;;;2.60;;
5999;SDS011;3028;49.468;7.694;2023-05-29T06:11:13;4.90;;;3.15;;
5999;SDS011;3028;49.468;7.694;2023-05-29T06:13:14;5.40;;;2.88;;
5999;SDS011;3028;49.468;7.694;2023-05-29T06:15:18;3.50;;;3.20;;
5999;SDS011;3028;49.468;7.694;2023-05-29T06:17:19;7.88;;;2.42;;
5999;SDS011;3028;49.468;7.694;2023-05-29T06:19:23;3.38;;;2.72;;
5999;SDS011;3028;49.468;7.694;2023-05-29T06:21:25;7.57;;;3.80;;
5999;SDS011;3028;49.468;7.694;2023-05-29T06:23:27;4.93;;;3.05;;
5999;SDS011;3028;49.468;7.694;2023-05-29T06:25:29;5.43;;;2.92;;
5999;SDS011;3028;49.468;7.694;2023-05-29T06:27:34;4.55;;;2.95;;
5999;SDS011;3028;49.468;7.694;2023-05-29T06:29:36;6.40;;;2.53;;
5999;SDS011;3028;49.468;7.694;2023-05-29T06:31:38;2.85;;;2.50;;
5999;SDS011;3028;49.468;7.694;2023-05-29T06:33:40;4.97;;;2.22;;
5999;SDS011;3028;49.468;7.694;2023-05-29T06:35:41;3.50;;;2.40;;
5999;SDS011;3028;49.468;7.694;2023-05-29T06:37:45;5.22;;;2.50;;
5999;SDS011;3028;49.468;7.694;2023-05-29T06:39:47;2.95;;;2.33;;
5999;SDS011;3028;49.468;7.694;2023-05-29T06:41:48;3.08;;;2.75;;
5999;SDS011;3028;49.468;7.694;2023-05-29T06:43:50;2.65;;;1.88;;
5999;SDS011;3028;49.468;7.694;2023-05-29T06:45:53;5.90;;;1.85;;
5999;SDS011;3028;49.468;7.694;2023-05-29T06:47:54;3.10;;;1.98;;
5999;SDS011;3028;49.468;7.694;2023-05-29T06:49:56;4.53;;;2.10;;
5999;SDS011;3028;49.468;7.694;2023-05-29T06:51:58;2.60;;;2.22;;
5999;SDS011;3028;49.468;7.694;2023-05-29T06:54:01;3.85;;;2.30;;
5999;SDS011;3028;49.468;7.694;2023-05-29T06:56:03;3.70;;;2.50;;
5999;SDS011;3028;49.468;7.694;2023-05-29T06:58:06;2.60;;;2.22;;
5999;SDS011;3028;49.468;7.694;2023-05-29T07:00:08;4.22;;;2.58;;
5999;SDS011;3028;49.468;7.694;2023-05-29T07:02:12;5.53;;;2.95;;
5999;SDS011;3028;49.468;7.694;2023-05-29T07:04:13;2.60;;;2.05;;
5999;SDS011;3028;49.468;7.694;2023-05-29T07:06:15;5.22;;;2.05;;
5999;SDS011;3028;49.468;7.694;2023-05-29T07:08:17;3.10;;;2.22;;
5999;SDS011;3028;49.468;7.694;2023-05-29T07:10:19;4.57;;;2.25;;
5999;SDS011;3028;49.468;7.694;2023-05-29T07:12:21;3.67;;;2.60;;
5999;SDS011;3028;49.468;7.694;2023-05-29T07:14:24;2.95;;;1.95;;
5999;SDS011;3028;49.468;7.694;2023-05-29T07:16:26;3.13;;;2.13;;
5999;SDS011;3028;49.468;7.694;2023-05-29T07:18:28;2.38;;;1.83;;
5999;SDS011;3028;49.468;7.694;2023-05-29T07:20:30;8.30;;;2.63;;
5999;SDS011;3028;49.468;7.694;2023-05-29T07:22:31;3.05;;;2.25;;
5999;SDS011;3028;49.468;7.694;2023-05-29T07:24:33;2.45;;;2.25;;
5999;SDS011;3028;49.468;7.694;2023-05-29T07:26:35;4.28;;;1.98;;
5999;SDS011;3028;49.468;7.694;2023-05-29T07:28:37;4.72;;;2.10;;
5999;SDS011;3028;49.468;7.694;2023-05-29T07:30:38;4.15;;;2.40;;
5999;SDS011;3028;49.468;7.694;2023-05-29T07:32:40;5.60;;;2.15;;
5999;SDS011;3028;49.468;7.694;2023-05-29T07:34:42;2.58;;;2.33;;
5999;SDS011;3028;49.468;7.694;2023-05-29T07:39:05;2.88;;;1.67;;
5999;SDS011;3028;49.468;7.694;2023-05-29T07:41:09;3.47;;;2.72;;
5999;SDS011;3028;49.468;7.694;2023-05-29T07:43:11;4.70;;;2.45;;
5999;SDS011;3028;49.468;7.694;2023-05-29T07:45:12;5.75;;;2.60;;
5999;SDS011;3028;49.468;7.694;2023-05-29T07:47:14;4.72;;;2.38;;
5999;SDS011;3028;49.468;7.694;2023-05-29T07:49:16;2.58;;;2.35;;
5999;SDS011;3028;49.468;7.694;2023-05-29T07:51:18;2.70;;;1.85;;
5999;SDS011;3028;49.468;7.694;2023-05-29T07:53:20;4.57;;;2.50;;
5999;SDS011;3028;49.468;7.694;2023-05-29T07:55:22;2.97;;;1.90;;
5999;SDS011;3028;49.468;7.694;2023-05-29T07:57:24;3.72;;;2.28;;
5999;SDS011;3028;49.468;7.694;2023-05-29T07:59:26;9.02;;;2.03;;
5999;SDS011;3028;49.468;7.694;2023-05-29T08:01:28;3.78;;;2.17;;
5999;SDS011;3028;49.468;7.694;2023-05-29T08:03:30;5.70;;;1.95;;
5999;SDS011;3028;49.468;7.694;2023-05-29T08:05:32;3.90;;;2.53;;
5999;SDS011;3028;49.468;7.694;2023-05-29T08:07:34;3.97;;;2.55;;
5999;SDS011;3028;49.468;7.694;2023-05-29T08:09:37;3.30;;;1.98;;
5999;SDS011;3028;49.468;7.694;2023-05-29T08:11:39;2.47;;;2.13;;
5999;SDS011;3028;49.468;7.694;2023-05-29T08:13:41;4.10;;;2.30;;
5999;SDS011;3028;49.468;7.694;2023-05-29T08:15:43;4.07;;;2.53;;
5999;SDS011;3028;49.468;7.694;2023-05-29T08:17:44;5.20;;;2.20;;
5999;SDS011;3028;49.468;7.694;2023-05-29T08:19:46;3.88;;;2.67;;
5999;SDS011;3028;49.468;7.694;2023-05-29T08:21:48;4.07;;;2.90;;
5999;SDS011;3028;49.468;7.694;2023-05-29T08:23:49;3.42;;;2.60;;
5999;SDS011;3028;49.468;7.694;2023-05-29T08:25:51;3.70;;;2.17;;
5999;SDS011;3028;49.468;7.694;2023-05-29T08:27:53;4.20;;;2.72;;
5999;SDS011;3028;49.468;7.694;2023-05-29T08:29:54;2.75;;;2.40;;
5999;SDS011;3028;49.468;7.694;2023-05-29T08:31:56;18.55;;;2.33;;
5999;SDS011;3028;49.468;7.694;2023-05-29T08:33:58;5.28;;;2.55;;
5999;SDS011;3028;49.468;7.694;2023-05-29T08:36:00;2.75;;;1.95;;
5999;SDS011;3028;49.468;7.694;2023-05-29T08:38:01;4.95;;;2.00;;
5999;SDS011;3028;49.468;7.694;2023-05-29T08:40:03;3.10;;;2.25;;
5999;SDS011;3028;49.468;7.694;2023-05-29T08:42:12;2.65;;;2.45;;
5999;SDS011;3028;49.468;7.694;2023-05-29T08:44:16;2.65;;;2.15;;
5999;SDS011;3028;49.468;7.694;2023-05-29T08:46:23;6.50;;;2.40;;
5999;SDS011;3028;49.468;7.694;2023-05-29T08:48:25;14.80;;;2.75;;
5999;SDS011;3028;49.468;7.694;2023-05-29T08:50:28;2.88;;;2.03;;
5999;SDS011;3028;49.468;7.694;2023-05-29T08:52:32;4.97;;;2.60;;
5999;SDS011;3028;49.468;7.694;2023-05-29T08:54:38;3.72;;;2.67;;
5999;SDS011;3028;49.468;7.694;2023-05-29T08:56:41;4.95;;;2.65;;
5999;SDS011;3028;49.468;7.694;2023-05-29T08:58:43;3.08;;;2.30;;
5999;SDS011;3028;49.468;7.694;2023-05-29T09:00:46;2.70;;;2.00;;
5999;SDS011;3028;49.468;7.694;2023-05-29T09:02:48;2.95;;;2.20;;
5999;SDS011;3028;49.468;7.694;2023-05-29T09:04:50;3.55;;;2.53;;
5999;SDS011;3028;49.468;7.694;2023-05-29T09:06:55;3.00;;;2.15;;
5999;SDS011;3028;49.468;7.694;2023-05-29T09:08:57;3.90;;;2.30;;
5999;SDS011;3028;49.468;7.694;2023-05-29T09:10:59;3.00;;;2.10;;
5999;SDS011;3028;49.468;7.694;2023-05-29T09:13:02;3.08;;;1.98;;
5999;SDS011;3028;49.468;7.694;2023-05-29T09:15:15;6.35;;;2.45;;
5999;SDS011;3028;49.468;7.694;2023-05-29T09:17:18;3.22;;;2.17;;
5999;SDS011;3028;49.468;7.694;2023-05-29T09:19:21;3.55;;;2.03;;
5999;SDS011;3028;49.468;7.694;2023-05-29T09:21:26;2.30;;;2.10;;
5999;SDS011;3028;49.468;7.694;2023-05-29T09:23:28;4.88;;;2.28;;
5999;SDS011;3028;49.468;7.694;2023-05-29T09:25:31;3.10;;;2.28;;
5999;SDS011;3028;49.468;7.694;2023-05-29T09:27:38;4.13;;;2.25;;
5999;SDS011;3028;49.468;7.694;2023-05-29T09:29:40;2.30;;;2.08;;
5999;SDS011;3028;49.468;7.694;2023-05-29T09:31:46;4.07;;;2.67;;
5999;SDS011;3028;49.468;7.694;2023-05-29T09:33:49;3.20;;;2.25;;
5999;SDS011;3028;49.468;7.694;2023-05-29T09:35:51;3.25;;;2.95;;
5999;SDS011;3028;49.468;7.694;2023-05-29T09:37:53;5.75;;;2.60;;
5999;SDS011;3028;49.468;7.694;2023-05-29T09:39:55;7.25;;;2.83;;
5999;SDS011;3028;49.468;7.694;2023-05-29T09:41:57;3.30;;;2.28;;
5999;SDS011;3028;49.468;7.694;2023-05-29T09:43:59;3.25;;;2.03;;
5999;SDS011;3028;49.468;7.694;2023-05-29T09:46:02;9.20;;;4.85;;
5999;SDS011;3028;49.468;7.694;2023-05-29T09:48:08;5.22;;;2.97;;
5999;SDS011;3028;49.468;7.694;2023-05-29T09:50:19;5.88;;;2.85;;
5999;SDS011;3028;49.468;7.694;2023-05-29T09:52:24;7.78;;;2.40;;
5999;SDS011;3028;49.468;7.694;2023-05-29T09:54:27;3.15;;;2.70;;
5999;SDS011;3028;49.468;7.694;2023-05-29T09:56:32;4.65;;;2.47;;
5999;SDS011;3028;49.468;7.694;2023-05-29T09:58:34;2.45;;;2.25;;
5999;SDS011;3028;49.468;7.694;2023-05-29T10:00:36;3.40;;;2.45;;
5999;SDS011;3028;49.468;7.694;2023-05-29T10:02:38;4.75;;;2.67;;
5999;SDS011;3028;49.468;7.694;2023-05-29T10:04:44;4.35;;;2.95;;
5999;SDS011;3028;49.468;7.694;2023-05-29T10:06:46;3.53;;;2.58;;
5999;SDS011;3028;49.468;7.694;2023-05-29T10:08:50;4.00;;;2.65;;
5999;SDS011;3028;49.468;7.694;2023-05-29T10:11:01;4.57;;;2.58;;
5999;SDS011;3028;49.468;7.694;2023-05-29T10:13:03;4.28;;;2.70;;
5999;SDS011;3028;49.468;7.694;2023-05-29T10:15:14;4.10;;;2.65;;
5999;SDS011;3028;49.468;7.694;2023-05-29T10:17:17;3.05;;;2.50;;
5999;SDS011;3028;49.468;7.694;2023-05-29T10:19:21;3.05;;;2.58;;
5999;SDS011;3028;49.468;7.694;2023-05-29T10:21:27;5.07;;;2.88;;
5999;SDS011;3028;49.468;7.694;2023-05-29T10:23:29;8.07;;;3.05;;
5999;SDS011;3028;49.468;7.694;2023-05-29T10:25:32;3.35;;;2.30;;
5999;SDS011;3028;49.468;7.694;2023-05-29T10:27:35;3.08;;;2.70;;
5999;SDS011;3028;49.468;7.694;2023-05-29T10:29:45;3.33;;;2.65;;
5999;SDS011;3028;49.468;7.694;2023-05-29T10:32:04;3.22;;;2.45;;
5999;SDS011;3028;49.468;7.694;2023-05-29T10:34:28;6.38;;;2.90;;
5999;SDS011;3028;49.468;7.694;2023-05-29T10:36:35;4.25;;;2.60;;
5999;SDS011;3028;49.468;7.694;2023-05-29T10:38:43;5.18;;;2.88;;
5999;SDS011;3028;49.468;7.694;2023-05-29T10:40:46;4.15;;;2.53;;
5999;SDS011;3028;49.468;7.694;2023-05-29T10:42:49;2.47;;;1.95;;
5999;SDS011;3028;49.468;7.694;2023-05-29T10:44:54;3.25;;;2.55;;
5999;SDS011;3028;49.468;7.694;2023-05-29T10:49:00;2.85;;;2.45;;
5999;SDS011;3028;49.468;7.694;2023-05-29T10:51:02;4.35;;;2.60;;
5999;SDS011;3028;49.468;7.694;2023-05-29T10:53:07;6.03;;;2.50;;
5999;SDS011;3028;49.468;7.694;2023-05-29T10:55:12;4.88;;;2.75;;
5999;SDS011;3028;49.468;7.694;2023-05-29T10:57:21;4.78;;;2.38;;
5999;SDS011;3028;49.468;7.694;2023-05-29T10:59:23;4.63;;;2.47;;
5999;SDS011;3028;49.468;7.694;2023-05-29T11:01:29;5.05;;;2.22;;
5999;SDS011;3028;49.468;7.694;2023-05-29T11:03:32;3.53;;;2.20;;
5999;SDS011;3028;49.468;7.694;2023-05-29T11:05:34;4.45;;;2.60;;
5999;SDS011;3028;49.468;7.694;2023-05-29T11:07:50;5.00;;;2.13;;
5999;SDS011;3028;49.468;7.694;2023-05-29T11:09:58;3.90;;;2.53;;
5999;SDS011;3028;49.468;7.694;2023-05-29T11:14:47;4.60;;;2.75;;
5999;SDS011;3028;49.468;7.694;2023-05-29T11:16:54;4.63;;;2.45;;
5999;SDS011;3028;49.468;7.694;2023-05-29T11:18:56;5.03;;;2.63;;
5999;SDS011;3028;49.468;7.694;2023-05-29T11:21:02;4.45;;;2.60;;
5999;SDS011;3028;49.468;7.694;2023-05-29T11:23:07;3.47;;;2.42;;
5999;SDS011;3028;49.468;7.694;2023-05-29T11:25:10;15.73;;;2.70;;
5999;SDS011;3028;49.468;7.694;2023-05-29T11:27:12;3.97;;;2.33;;
5999;SDS011;3028;49.468;7.694;2023-05-29T11:29:14;4.43;;;2.05;;
5999;SDS011;3028;49.468;7.694;2023-05-29T11:31:15;2.50;;;2.13;;
5999;SDS011;3028;49.468;7.694;2023-05-29T11:33:26;3.72;;;2.40;;
5999;SDS011;3028;49.468;7.694;2023-05-29T11:35:28;4.55;;;2.17;;
5999;SDS011;3028;49.468;7.694;2023-05-29T11:37:32;5.13;;;2.72;;
5999;SDS011;3028;49.468;7.694;2023-05-29T11:39:36;2.38;;;1.98;;
5999;SDS011;3028;49.468;7.694;2023-05-29T11:41:38;3.85;;;2.63;;
5999;SDS011;3028;49.468;7.694;2023-05-29T11:43:40;6.78;;;2.70;;
5999;SDS011;3028;49.468;7.694;2023-05-29T11:45:42;10.23;;;2.70;;
5999;SDS011;3028;49.468;7.694;2023-05-29T11:47:53;3.40;;;2.70;;
5999;SDS011;3028;49.468;7.694;2023-05-29T11:49:59;3.33;;;2.05;;
5999;SDS011;3028;49.468;7.694;2023-05-29T11:52:07;4.07;;;2.67;;
5999;SDS011;3028;49.468;7.694;2023-05-29T11:54:13;2.58;;;2.05;;
5999;SDS011;3028;49.468;7.694;2023-05-29T11:56:15;6.05;;;2.55;;
5999;SDS011;3028;49.468;7.694;2023-05-29T11:58:17;2.95;;;2.05;;
5999;SDS011;3028;49.468;7.694;2023-05-29T12:00:19;5.88;;;3.10;;
5999;SDS011;3028;49.468;7.694;2023-05-29T12:02:20;4.85;;;2.75;;
5999;SDS011;3028;49.468;7.694;2023-05-29T12:04:24;3.78;;;2.55;;
5999;SDS011;3028;49.468;7.694;2023-05-29T12:06:32;3.97;;;3.15;;
5999;SDS011;3028;49.468;7.694;2023-05-29T12:08:39;3.95;;;2.65;;
5999;SDS011;3028;49.468;7.694;2023-05-29T12:10:48;3.67;;;2.63;;
5999;SDS011;3028;49.468;7.694;2023-05-29T12:12:51;4.82;;;2.83;;
5999;SDS011;3028;49.468;7.694;2023-05-29T12:14:53;4.63;;;2.60;;
5999;SDS011;3028;49.468;7.694;2023-05-29T12:16:56;4.90;;;2.80;;
5999;SDS011;3028;49.468;7.694;2023-05-29T12:18:58;4.80;;;2.47;;
5999;SDS011;3028;49.468;7.694;2023-05-29T12:21:03;3.47;;;2.70;;
5999;SDS011;3028;49.468;7.694;2023-05-29T12:23:05;3.25;;;2.13;;
5999;SDS011;3028;49.468;7.694;2023-05-29T12:25:08;5.95;;;2.10;;
5999;SDS011;3028;49.468;7.694;2023-05-29T12:27:14;3.42;;;2.53;;
5999;SDS011;3028;49.468;7.694;2023-05-29T12:29:16;5.32;;;2.10;;
5999;SDS011;3028;49.468;7.694;2023-05-29T12:31:27;4.30;;;2.72;;
5999;SDS011;3028;49.468;7.694;2023-05-29T12:33:32;3.92;;;2.33;;
5999;SDS011;3028;49.468;7.694;2023-05-29T12:35:34;3.03;;;2.55;;
5999;SDS011;3028;49.468;7.694;2023-05-29T12:37:36;5.03;;;3.85;;
5999;SDS011;3028;49.468;7.694;2023-05-29T12:39:44;4.85;;;3.55;;
5999;SDS011;3028;49.468;7.694;2023-05-29T12:41:45;3.65;;;2.70;;
5999;SDS011;3028;49.468;7.694;2023-05-29T12:43:47;3.20;;;2.90;;
5999;SDS011;3028;49.468;7.694;2023-05-29T12:45:55;4.90;;;3.10;;
5999;SDS011;3028;49.468;7.694;2023-05-29T12:48:02;3.13;;;2.63;;
5999;SDS011;3028;49.468;7.694;2023-05-29T12:52:29;3.83;;;2.53;;
5999;SDS011;3028;49.468;7.694;2023-05-29T12:54:30;3.75;;;2.25;;
5999;SDS011;3028;49.468;7.694;2023-05-29T12:56:32;4.43;;;2.45;;
5999;SDS011;3028;49.468;7.694;2023-05-29T12:58:34;3.30;;;2.28;;
5999;SDS011;3028;49.468;7.694;2023-05-29T13:00:36;2.80;;;1.95;;